Aviation Digital Data Service (ADDS)

Output produced by TAFs form (0055 UTC 21 November 2017)
found at http://www.aviationweather.gov/adds/tafs/
 
KSAN 202320Z 2100/2206 VRB04KT P6SM SCT200 
     FM212100 30008KT P6SM SCT200 
     FM220000 VRB04KT P6SM SCT200